Time;durP1;ratioP1;P1;durP2;ratioP2;P2;SDS_P1;SDS_P2;PMS_P1;PMS_P2;Temp;Humidity;BMP_temperature;BMP_pressure;BME280_temperature;BME280_humidity;BME280_pressure;Samples;Min_cycle;Max_cycle;Signal;HPM_P1;HPM_P2
2022/02/03 00:00:02;;;;;;;2.90;1.90;;;4.80;96.60;;;;;;6247411;28;20463;-66
2022/02/03 00:03:15;;;;;;;3.43;2.30;;;4.70;96.60;;;;;;6248324;28;20478;-66
2022/02/03 00:06:30;;;;;;;3.53;2.70;;;4.40;96.50;;;;;;6249468;28;20475;-66
2022/02/03 00:16:44;;;;;;;3.07;2.40;;;4.20;96.60;;;;;;6249491;28;20545;-67
2022/02/03 00:23:46;;;;;;;1.50;1.50;;;4.10;97.10;;;;;;6248418;28;20983;-67
2022/02/03 00:26:54;;;;;;;2.77;2.57;;;4.20;97.10;;;;;;6247510;28;20490;-67
2022/02/03 00:30:02;;;;;;;2.50;2.30;;;4.20;97.10;;;;;;6248691;28;20480;-66
2022/02/03 00:33:15;;;;;;;2.70;2.50;;;4.20;97.10;;;;;;6249803;28;20479;-67
2022/02/03 00:36:22;;;;;;;2.90;2.17;;;4.20;97.10;;;;;;6252141;28;20463;-67
2022/02/03 00:49:40;;;;;;;2.97;2.30;;;4.20;96.70;;;;;;6251470;28;20467;-68
2022/02/03 00:52:43;;;;;;;3.63;2.23;;;4.10;96.70;;;;;;6248219;28;20491;-67
2022/02/03 00:55:53;;;;;;;3.77;2.70;;;4.10;96.80;;;;;;6249536;28;20820;-67
2022/02/03 00:59:04;;;;;;;2.87;2.57;;;4.10;97.00;;;;;;6248544;28;20463;-68
2022/02/03 01:02:09;;;;;;;2.83;2.63;;;4.00;97.10;;;;;;6247691;28;20866;-68
2022/02/03 01:05:14;;;;;;;3.33;2.63;;;4.00;97.20;;;;;;6238108;28;20498;-67
2022/02/03 01:08:20;;;;;;;3.07;2.77;;;3.90;97.30;;;;;;6247689;28;20818;-67
2022/02/03 01:11:30;;;;;;;5.27;2.40;;;3.80;97.90;;;;;;6247454;28;20475;-67
2022/02/03 01:14:44;;;;;;;4.97;2.73;;;3.80;98.20;;;;;;6247918;28;20491;-65
2022/02/03 01:17:57;;;;;;;2.73;2.53;;;3.70;98.30;;;;;;6246821;28;20467;-66
2022/02/03 01:34:41;;;;;;;7.90;3.20;;;3.70;98.60;;;;;;6252212;28;20460;-66
2022/02/03 01:43:12;;;;;;;3.13;2.77;;;3.70;98.50;;;;;;6254312;28;20467;-67
2022/02/03 01:44:56;;;;;;;3.30;2.33;;;3.70;98.30;;;;;;6253991;28;21009;-66
2022/02/03 01:48:20;;;;;;;3.07;2.20;;;3.70;98.30;;;;;;6251819;28;20471;-66
2022/02/03 01:51:43;;;;;;;2.70;2.50;;;3.70;98.20;;;;;;6251755;28;20807;-66
2022/02/03 01:54:52;;;;;;;3.63;3.17;;;3.70;98.10;;;;;;6251814;28;20958;-66
2022/02/03 01:58:03;;;;;;;3.30;3.00;;;3.70;98.00;;;;;;6251015;28;20471;-66
2022/02/03 02:01:08;;;;;;;2.47;2.30;;;3.70;98.00;;;;;;6249773;28;20459;-66
2022/02/03 02:04:21;;;;;;;5.50;3.23;;;3.70;98.00;;;;;;6249476;28;20482;-66
2022/02/03 02:07:30;;;;;;;2.63;2.30;;;3.60;97.80;;;;;;6249656;28;20982;-66
2022/02/03 02:11:01;;;;;;;2.63;2.37;;;3.60;97.80;;;;;;6239646;28;20475;-66
2022/02/03 02:14:29;;;;;;;2.60;2.40;;;3.50;97.80;;;;;;6249087;28;20548;-67
2022/02/03 02:18:12;;;;;;;3.40;2.27;;;3.50;97.90;;;;;;6248683;28;20486;-67
2022/02/03 02:38:54;;;;;;;2.40;2.20;;;3.30;98.10;;;;;;6250368;28;20463;-67
2022/02/03 02:45:54;;;;;;;3.00;2.10;;;3.10;98.00;;;;;;6174518;28;20492;-66
2022/02/03 02:49:12;;;;;;;2.27;2.07;;;3.00;98.30;;;;;;6176299;28;20470;-66
2022/02/03 02:52:23;;;;;;;2.00;1.83;;;2.80;98.40;;;;;;6249448;28;20475;-66
2022/02/03 02:55:46;;;;;;;5.33;2.00;;;2.70;98.80;;;;;;6249412;28;20478;-66
2022/02/03 02:59:24;;;;;;;2.17;2.03;;;2.80;99.10;;;;;;6248931;28;20818;-66
2022/02/03 03:30:01;;;;;;;1.90;1.70;;;2.90;98.30;;;;;;6248709;28;20549;-66
2022/02/03 03:33:20;;;;;;;2.37;2.17;;;2.90;98.10;;;;;;6248757;28;20482;-66
2022/02/03 03:36:24;;;;;;;3.33;2.17;;;2.80;98.20;;;;;;6248777;28;20479;-67
2022/02/03 03:39:34;;;;;;;2.60;1.60;;;2.70;98.20;;;;;;6248994;28;20490;-67
2022/02/03 03:42:45;;;;;;;2.47;1.83;;;2.70;98.40;;;;;;6249614;28;20983;-66
2022/02/03 03:45:52;;;;;;;4.00;3.20;;;2.70;98.60;;;;;;6247477;28;20471;-66
2022/02/03 03:49:04;;;;;;;3.17;2.90;;;2.70;98.70;;;;;;6248660;28;21029;-66
2022/02/03 03:52:14;;;;;;;4.30;3.40;;;2.70;98.80;;;;;;6248051;28;20480;-66
2022/02/03 03:55:31;;;;;;;4.20;3.80;;;2.50;98.90;;;;;;6248319;28;20471;-67
2022/02/03 04:34:14;;;;;;;5.97;3.47;;;2.30;99.80;;;;;;6318700;28;20473;-67
2022/02/03 04:55:49;;;;;;;3.50;2.67;;;2.30;99.90;;;;;;6306140;28;20999;-67
2022/02/03 05:02:58;;;;;;;3.70;3.40;;;2.20;99.90;;;;;;6266483;28;20478;-67
2022/02/03 05:06:17;;;;;;;4.30;3.90;;;2.30;99.90;;;;;;6318493;28;20798;-67
2022/02/03 05:09:47;;;;;;;4.13;3.23;;;2.30;99.90;;;;;;6318771;28;20472;-67
2022/02/03 05:13:36;;;;;;;4.20;2.97;;;2.20;99.90;;;;;;6308978;28;20794;-67
2022/02/03 05:17:14;;;;;;;4.93;3.03;;;2.20;99.90;;;;;;6296009;28;20975;-67
2022/02/03 05:20:53;;;;;;;4.67;3.10;;;2.10;99.90;;;;;;6301246;28;20469;-67
2022/02/03 05:35:27;;;;;;;3.93;3.00;;;2.20;99.90;;;;;;6184420;28;20477;-67
2022/02/03 05:42:16;;;;;;;3.60;3.30;;;2.20;99.90;;;;;;6317018;28;20470;-67
2022/02/03 05:45:51;;;;;;;5.23;3.27;;;2.20;99.90;;;;;;6304329;28;20542;-66
2022/02/03 05:49:05;;;;;;;3.70;3.40;;;2.20;99.90;;;;;;6304465;28;20474;-67
2022/02/03 06:05:51;;;;;;;7.03;4.60;;;2.30;99.90;;;;;;6200246;28;20469;-67
2022/02/03 06:09:00;;;;;;;4.03;3.70;;;2.30;99.90;;;;;;6201421;28;20512;-67
2022/02/03 06:12:46;;;;;;;10.47;5.70;;;2.30;99.90;;;;;;6300954;28;20473;-67
2022/02/03 06:16:05;;;;;;;4.80;4.17;;;2.30;99.90;;;;;;6301103;28;20484;-67
2022/02/03 06:22:42;;;;;;;7.23;4.10;;;2.20;99.90;;;;;;6300912;28;20489;-66
2022/02/03 06:29:07;;;;;;;4.83;4.17;;;2.30;99.90;;;;;;6299736;28;20453;-66
2022/02/03 06:32:11;;;;;;;4.67;3.87;;;2.30;99.90;;;;;;6301641;28;20484;-67
2022/02/03 06:35:17;;;;;;;5.63;5.20;;;2.40;99.90;;;;;;6298999;28;20469;-67
2022/02/03 06:38:22;;;;;;;3.90;3.50;;;2.40;99.80;;;;;;6299023;28;20505;-67
2022/02/03 06:41:25;;;;;;;4.17;3.63;;;2.30;99.50;;;;;;6299563;28;20465;-66
2022/02/03 06:44:33;;;;;;;5.10;4.27;;;2.40;99.40;;;;;;6299566;28;20488;-66
2022/02/03 06:47:48;;;;;;;4.10;3.60;;;2.30;99.30;;;;;;6299193;28;20968;-68
2022/02/03 06:50:58;;;;;;;3.90;3.60;;;2.40;99.40;;;;;;6299313;28;20461;-68
2022/02/03 06:54:13;;;;;;;4.93;3.47;;;2.50;99.30;;;;;;6299331;28;20551;-66
2022/02/03 06:57:22;;;;;;;5.37;3.60;;;2.50;99.10;;;;;;6298612;28;20496;-66
2022/02/03 07:00:29;;;;;;;5.10;3.70;;;2.60;99.20;;;;;;6298379;28;20477;-67
2022/02/03 07:03:37;;;;;;;4.60;4.20;;;2.60;99.20;;;;;;6300001;28;20473;-68
2022/02/03 07:06:40;;;;;;;3.90;3.50;;;2.80;98.90;;;;;;6298939;28;20466;-68
2022/02/03 07:09:48;;;;;;;5.33;4.63;;;2.90;98.50;;;;;;6297986;28;20472;-67
2022/02/03 07:12:51;;;;;;;5.80;5.10;;;3.00;98.30;;;;;;6298395;28;20472;-67
2022/02/03 07:15:54;;;;;;;8.77;4.60;;;3.00;97.90;;;;;;6298235;28;20480;-67
2022/02/03 07:18:57;;;;;;;6.33;4.33;;;3.10;97.70;;;;;;6298564;28;20840;-66
2022/02/03 07:22:01;;;;;;;8.70;6.23;;;3.20;97.50;;;;;;6298138;28;20976;-67
2022/02/03 07:25:06;;;;;;;9.60;5.33;;;3.30;97.50;;;;;;6289619;28;20586;-66
2022/02/03 07:28:09;;;;;;;5.43;4.90;;;3.40;97.20;;;;;;6298429;28;20978;-66
2022/02/03 07:31:12;;;;;;;5.43;4.63;;;3.50;97.00;;;;;;6298344;28;20999;-66
2022/02/03 07:34:17;;;;;;;7.97;5.67;;;3.60;96.70;;;;;;6297903;28;20476;-67
2022/02/03 07:37:22;;;;;;;4.73;4.10;;;3.70;96.50;;;;;;6298081;28;20485;-66
2022/02/03 07:40:27;;;;;;;5.43;4.50;;;3.80;96.20;;;;;;6297528;28;20832;-66
2022/02/03 07:43:30;;;;;;;5.10;4.30;;;3.90;96.10;;;;;;6297716;28;20494;-67
2022/02/03 07:46:34;;;;;;;9.33;4.60;;;4.00;95.90;;;;;;6298293;28;20465;-68
2022/02/03 07:49:37;;;;;;;6.50;5.00;;;4.10;95.70;;;;;;6298118;28;20469;-68
2022/02/03 07:52:40;;;;;;;5.70;4.10;;;4.30;95.60;;;;;;6298009;28;20457;-68
2022/02/03 07:55:46;;;;;;;6.03;3.97;;;4.40;95.50;;;;;;6298263;28;20445;-68
2022/02/03 07:58:50;;;;;;;8.03;4.60;;;4.50;95.10;;;;;;6298243;28;20442;-68
2022/02/03 08:01:53;;;;;;;7.43;4.53;;;4.50;94.90;;;;;;6297895;28;20489;-69
2022/02/03 08:04:56;;;;;;;5.07;4.30;;;4.60;94.70;;;;;;6298322;28;20453;-68
2022/02/03 08:08:12;;;;;;;5.50;4.47;;;4.70;94.80;;;;;;6297894;28;20477;-68
2022/02/03 08:11:22;;;;;;;4.63;4.07;;;4.70;94.70;;;;;;6297263;28;20481;-68
2022/02/03 08:14:32;;;;;;;13.23;4.73;;;4.80;94.60;;;;;;6298000;28;20473;-68
2022/02/03 08:17:39;;;;;;;7.60;4.00;;;4.90;94.70;;;;;;6298036;28;20480;-68
2022/02/03 08:20:52;;;;;;;5.60;3.67;;;4.90;94.50;;;;;;6297706;28;20461;-66
2022/02/03 08:24:15;;;;;;;3.63;3.33;;;5.00;94.50;;;;;;6293206;28;20489;-67
2022/02/03 08:30:47;;;;;;;5.73;3.07;;;5.20;94.20;;;;;;6293831;28;20466;-67
2022/02/03 08:33:55;;;;;;;6.07;4.10;;;5.40;94.20;;;;;;6296194;28;20855;-66
2022/02/03 08:36:59;;;;;;;3.90;3.53;;;5.60;94.20;;;;;;6297512;28;20475;-67
2022/02/03 08:40:11;;;;;;;8.93;5.37;;;5.80;94.30;;;;;;6297494;28;20473;-68
2022/02/03 08:43:16;;;;;;;6.47;3.77;;;6.00;93.80;;;;;;6297240;28;20477;-67
2022/02/03 08:46:24;;;;;;;4.80;3.80;;;6.30;93.60;;;;;;6298047;28;20473;-66
2022/02/03 08:49:27;;;;;;;3.77;3.37;;;6.70;93.10;;;;;;6301966;28;20473;-67
2022/02/03 08:52:39;;;;;;;4.83;3.40;;;7.00;92.30;;;;;;6300424;28;20472;-69
2022/02/03 08:55:52;;;;;;;5.80;4.03;;;7.40;91.50;;;;;;6299240;28;20512;-68
2022/02/03 09:36:14;;;;;;;5.20;2.37;;;8.80;76.40;;;;;;6301204;28;20483;-68
2022/02/03 09:39:25;;;;;;;3.60;2.50;;;8.50;76.80;;;;;;6303252;28;20481;-69
2022/02/03 09:52:46;;;;;;;4.00;1.97;;;8.00;78.80;;;;;;6300557;28;20543;-69
2022/02/03 09:59:17;;;;;;;2.57;1.70;;;12.30;69.40;;;;;;6281446;28;20457;-68
2022/02/03 10:02:24;;;;;;;6.40;2.00;;;16.90;54.50;;;;;;6300172;28;20473;-68
2022/02/03 10:05:36;;;;;;;3.43;1.97;;;20.60;46.10;;;;;;6300469;28;20968;-68
2022/02/03 10:08:48;;;;;;;4.00;2.93;;;24.40;35.80;;;;;;6300411;28;20236;-68
2022/02/03 10:11:59;;;;;;;2.90;2.30;;;27.10;29.80;;;;;;6300230;28;20660;-67
2022/02/03 10:15:04;;;;;;;4.37;2.83;;;29.50;26.10;;;;;;6299893;28;20595;-69
2022/02/03 10:18:21;;;;;;;2.73;1.73;;;31.40;24.60;;;;;;6300307;28;20706;-72
2022/02/03 10:21:27;;;;;;;2.38;2.10;;;32.80;22.00;;;;;;6300308;28;20251;-70
2022/02/03 10:24:36;;;;;;;2.83;2.00;;;34.40;21.20;;;;;;6301516;28;20241;-70
2022/02/03 10:27:45;;;;;;;2.67;2.42;;;35.60;19.60;;;;;;6305908;28;20518;-70
2022/02/03 10:30:51;;;;;;;2.38;1.60;;;36.50;18.70;;;;;;6304743;28;20262;-71
2022/02/03 10:34:03;;;;;;;2.78;1.73;;;36.30;17.80;;;;;;6297758;28;20257;-70
2022/02/03 10:37:21;;;;;;;2.92;2.20;;;35.80;17.50;;;;;;6299464;28;20234;-70
2022/02/03 10:40:48;;;;;;;2.72;1.80;;;36.40;17.70;;;;;;6299297;28;20258;-70
2022/02/03 10:50:56;;;;;;;2.38;2.03;;;37.10;16.70;;;;;;6288393;28;20229;-70
2022/02/03 10:54:24;;;;;;;4.97;2.92;;;38.10;16.30;;;;;;6298068;28;20235;-67
2022/02/03 11:01:14;;;;;;;3.55;2.85;;;39.10;15.30;;;;;;6287229;28;20234;-70
2022/02/03 11:07:49;;;;;;;4.53;1.60;;;35.20;16.60;;;;;;6294964;28;20223;-69
2022/02/03 11:10:58;;;;;;;4.50;1.95;;;35.20;16.50;;;;;;6303488;28;20229;-69
2022/02/03 11:14:02;;;;;;;2.50;2.00;;;35.30;16.50;;;;;;6293474;28;20540;-68
2022/02/03 11:17:06;;;;;;;2.10;1.60;;;35.00;16.60;;;;;;6295611;28;20231;-67
2022/02/03 11:20:11;;;;;;;3.08;1.80;;;33.70;17.00;;;;;;6293042;28;20240;-68
2022/02/03 11:23:30;;;;;;;4.50;2.83;;;31.40;18.40;;;;;;6293559;28;20235;-69
2022/02/03 11:26:45;;;;;;;2.50;1.80;;;31.40;18.90;;;;;;6297603;28;20229;-68
2022/02/03 11:31:02;;;;;;;4.88;2.47;;;32.30;18.10;;;;;;6296602;28;20233;-69
2022/02/03 11:48:39;;;;;;;3.25;2.42;;;35.50;15.90;;;;;;6294803;28;20234;-68
2022/02/03 11:52:09;;;;;;;3.45;2.55;;;36.00;15.70;;;;;;6295841;28;20283;-68
2022/02/03 12:02:00;;;;;;;2.85;2.40;;;32.50;17.40;;;;;;6296308;28;20274;-68
2022/02/03 12:05:21;;;;;;;2.90;1.85;;;32.50;17.40;;;;;;6297229;28;20238;-68
2022/02/03 12:12:25;;;;;;;3.42;3.08;;;35.90;15.70;;;;;;6295529;28;20690;-69
2022/02/03 12:15:47;;;;;;;3.17;2.72;;;37.10;14.90;;;;;;6297617;28;20226;-68
2022/02/03 12:22:38;;;;;;;3.10;2.40;;;38.10;14.40;;;;;;6299391;28;20238;-68
2022/02/03 12:25:54;;;;;;;3.50;2.67;;;36.10;15.10;;;;;;6301489;28;20230;-68
2022/02/03 12:29:05;;;;;;;3.55;2.60;;;35.00;15.60;;;;;;6302215;28;20269;-69
2022/02/03 12:32:23;;;;;;;4.25;3.15;;;34.90;16.00;;;;;;6302935;28;20230;-70
2022/02/03 12:39:11;;;;;;;4.03;2.60;;;32.70;16.70;;;;;;6211706;28;20242;-68
2022/02/03 12:42:23;;;;;;;4.55;3.15;;;32.20;16.70;;;;;;6297752;28;20261;-68
2022/02/03 12:45:27;;;;;;;4.60;2.87;;;32.10;17.20;;;;;;6308238;28;20236;-68
2022/02/03 12:48:32;;;;;;;3.07;2.57;;;30.20;17.80;;;;;;6304165;28;20242;-68
2022/02/03 12:51:37;;;;;;;4.10;2.70;;;30.90;17.90;;;;;;6301230;28;20239;-68
2022/02/03 12:54:40;;;;;;;3.20;2.57;;;30.30;17.60;;;;;;6301089;28;20342;-68
2022/02/03 12:57:47;;;;;;;3.00;2.70;;;27.60;18.90;;;;;;6298304;28;20233;-67
2022/02/03 13:00:56;;;;;;;6.90;2.70;;;24.80;20.90;;;;;;6298744;28;20321;-67
2022/02/03 13:04:03;;;;;;;3.97;2.60;;;23.20;22.60;;;;;;6297620;28;20257;-68
2022/02/03 13:07:10;;;;;;;3.00;2.27;;;22.10;23.70;;;;;;6297602;28;20677;-68
2022/02/03 13:10:15;;;;;;;2.30;2.10;;;21.20;24.60;;;;;;6296461;28;20674;-68
2022/02/03 13:13:25;;;;;;;2.80;2.50;;;19.70;25.60;;;;;;6297921;28;20223;-67
2022/02/03 13:16:28;;;;;;;4.43;2.00;;;19.50;26.40;;;;;;6299850;28;20239;-67
2022/02/03 13:19:42;;;;;;;3.30;2.17;;;19.40;26.30;;;;;;6303952;28;20477;-67
2022/02/03 13:22:52;;;;;;;3.10;2.13;;;19.00;26.30;;;;;;6302964;28;20321;-67
2022/02/03 13:26:11;;;;;;;2.00;1.80;;;18.90;26.40;;;;;;6301592;28;20654;-67
2022/02/03 13:29:19;;;;;;;2.40;2.07;;;18.40;26.90;;;;;;6301847;28;20464;-67
2022/02/03 13:32:31;;;;;;;3.13;1.60;;;17.90;27.60;;;;;;6301064;28;20485;-68
2022/02/03 13:35:55;;;;;;;3.60;2.00;;;17.60;28.00;;;;;;6301997;28;20515;-68
2022/02/03 13:39:07;;;;;;;3.30;2.07;;;17.20;28.40;;;;;;6303952;28;20503;-68
2022/02/03 13:42:12;;;;;;;2.83;2.17;;;16.70;28.90;;;;;;6303817;28;20873;-68
2022/02/03 13:45:18;;;;;;;3.17;2.10;;;16.10;29.90;;;;;;6296133;28;20477;-68
2022/02/03 13:48:22;;;;;;;3.93;2.47;;;15.60;30.70;;;;;;6302164;28;20774;-68
2022/02/03 13:51:27;;;;;;;5.30;2.00;;;16.00;30.90;;;;;;6301097;28;20953;-68
2022/02/03 13:54:58;;;;;;;7.40;2.40;;;16.00;30.90;;;;;;6299012;28;20469;-68
2022/02/03 14:15:41;;;;;;;4.10;3.30;;;15.40;32.10;;;;;;6234384;28;21220;-68
2022/02/03 14:19:11;;;;;;;10.70;2.93;;;14.30;34.10;;;;;;6226687;28;20464;-66
2022/02/03 14:22:17;;;;;;;5.17;3.40;;;13.70;35.70;;;;;;6274982;28;20493;-67
2022/02/03 14:28:42;;;;;;;16.60;4.07;;;13.20;37.10;;;;;;6275299;28;20474;-68
2022/02/03 14:31:50;;;;;;;10.27;4.00;;;13.10;37.60;;;;;;6276034;28;20466;-67
2022/02/03 14:34:53;;;;;;;7.10;4.30;;;13.00;37.70;;;;;;6300269;28;20445;-65
2022/02/03 14:38:05;;;;;;;4.93;3.60;;;13.00;38.10;;;;;;6297262;28;20912;-66
2022/02/03 14:41:14;;;;;;;5.30;4.17;;;13.10;39.30;;;;;;6274702;28;20473;-66
2022/02/03 14:44:19;;;;;;;8.53;4.77;;;13.20;38.40;;;;;;6274307;28;20473;-65
2022/02/03 14:47:27;;;;;;;4.90;3.17;;;13.30;38.30;;;;;;6266297;28;20465;-65
2022/02/03 14:50:30;;;;;;;5.07;3.17;;;13.30;38.40;;;;;;6274653;28;20854;-67
2022/02/03 14:53:49;;;;;;;7.00;3.37;;;13.10;38.60;;;;;;6274812;28;20477;-67
2022/02/03 15:00:15;;;;;;;7.03;3.00;;;12.30;39.60;;;;;;6274687;28;20478;-66
2022/02/03 15:03:20;;;;;;;5.13;3.30;;;12.00;40.30;;;;;;6275369;28;20485;-66
2022/02/03 15:06:34;;;;;;;7.23;3.90;;;11.90;40.70;;;;;;6279917;28;20494;-66
2022/02/03 15:13:10;;;;;;;11.50;6.40;;;11.70;41.50;;;;;;6248675;28;20819;-63
2022/02/03 15:16:16;;;;;;;6.13;3.30;;;11.50;41.90;;;;;;6272827;28;20493;-67
2022/02/03 15:19:39;;;;;;;5.40;4.07;;;11.40;42.30;;;;;;6273149;28;21516;-66
2022/02/03 15:22:42;;;;;;;6.47;4.07;;;11.30;42.40;;;;;;6273719;28;20469;-66
2022/02/03 15:25:45;;;;;;;6.33;4.10;;;11.30;42.50;;;;;;6273319;28;20477;-66
2022/02/03 15:28:48;;;;;;;7.33;3.97;;;11.20;42.90;;;;;;6274233;28;20454;-67
2022/02/03 15:31:53;;;;;;;7.80;4.03;;;11.10;43.30;;;;;;6296814;28;21010;-66
2022/02/03 15:35:17;;;;;;;6.20;3.57;;;11.10;43.40;;;;;;6298406;28;21020;-66
2022/02/03 15:38:22;;;;;;;6.37;3.70;;;11.00;43.70;;;;;;6298009;28;20477;-65
2022/02/03 15:41:28;;;;;;;7.30;3.80;;;10.80;44.10;;;;;;6299719;28;20476;-65
2022/02/03 15:44:37;;;;;;;6.17;3.90;;;10.80;44.70;;;;;;6297789;28;20754;-66
2022/02/03 15:47:47;;;;;;;6.07;3.30;;;10.60;45.00;;;;;;6290166;28;20485;-67
2022/02/03 15:58:05;;;;;;;8.73;4.37;;;10.30;46.40;;;;;;6272948;28;20462;-67
2022/02/03 16:17:51;;;;;;;21.27;8.27;;;10.00;49.00;;;;;;6272363;28;20477;-66
2022/02/03 16:21:01;;;;;;;17.70;7.67;;;9.90;50.10;;;;;;6272675;28;20480;-67
2022/02/03 16:42:52;;;;;;;12.67;7.43;;;9.50;51.80;;;;;;6296338;28;20548;-68
2022/02/03 16:52:02;;;;;;;14.40;8.50;;;9.30;53.30;;;;;;6294799;28;20473;-67
2022/02/03 16:55:11;;;;;;;15.37;9.57;;;9.20;53.70;;;;;;6291265;28;20493;-67
2022/02/03 16:58:15;;;;;;;28.30;14.03;;;9.10;54.20;;;;;;6296931;28;20495;-66
2022/02/03 17:01:19;;;;;;;19.53;13.17;;;9.00;54.60;;;;;;6296972;28;20504;-66
2022/02/03 17:04:22;;;;;;;23.93;11.67;;;8.90;54.90;;;;;;6297365;28;20615;-66
2022/02/03 17:07:27;;;;;;;13.90;9.07;;;8.90;55.30;;;;;;6297912;28;20469;-67
2022/02/03 17:10:31;;;;;;;12.50;7.87;;;8.80;55.70;;;;;;6302965;28;20487;-67
2022/02/03 17:13:34;;;;;;;11.10;6.93;;;8.70;55.90;;;;;;6301131;28;20488;-66
2022/02/03 17:16:38;;;;;;;12.00;6.73;;;8.70;56.30;;;;;;6302316;28;20472;-66
2022/02/03 17:19:41;;;;;;;12.23;6.87;;;8.60;56.70;;;;;;6301754;28;20987;-67
2022/02/03 17:22:52;;;;;;;9.50;7.30;;;8.60;57.00;;;;;;6300949;28;20460;-67
2022/02/03 17:26:07;;;;;;;10.97;7.87;;;8.50;57.10;;;;;;6301285;28;20477;-66
2022/02/03 17:29:19;;;;;;;13.53;8.83;;;8.50;57.30;;;;;;6301113;28;20468;-66
2022/02/03 17:44:55;;;;;;;13.00;8.30;;;8.50;57.80;;;;;;6301382;28;20477;-65
2022/02/03 18:09:23;;;;;;;10.87;7.50;;;7.90;60.90;;;;;;6301129;28;20473;-68
2022/02/03 18:19:47;;;;;;;15.60;9.70;;;7.80;62.10;;;;;;6299211;28;20476;-67
2022/02/03 18:33:16;;;;;;;12.67;9.07;;;7.60;62.70;;;;;;6297445;28;20469;-65
2022/02/03 18:36:42;;;;;;;13.10;9.73;;;7.50;63.10;;;;;;6299647;28;20941;-65
2022/02/03 18:50:16;;;;;;;12.70;9.23;;;7.30;64.60;;;;;;6272975;28;20465;-66
2022/02/03 18:53:26;;;;;;;15.17;9.40;;;7.30;65.10;;;;;;6297015;28;20856;-66
2022/02/03 18:56:35;;;;;;;11.93;8.90;;;7.20;65.60;;;;;;6292680;28;20985;-66
2022/02/03 19:00:04;;;;;;;10.30;8.20;;;7.10;65.90;;;;;;6274332;28;20486;-64
2022/02/03 19:03:27;;;;;;;15.23;9.30;;;7.10;66.30;;;;;;6285416;28;20469;-64
2022/02/03 19:10:32;;;;;;;15.50;9.13;;;7.00;66.90;;;;;;6281257;28;20836;-65
2022/02/03 19:24:09;;;;;;;12.80;9.57;;;6.60;68.90;;;;;;6297923;28;20484;-65
2022/02/03 19:27:38;;;;;;;15.60;10.80;;;6.60;69.50;;;;;;6299420;28;20619;-65
2022/02/03 20:04:47;;;;;;;15.30;9.40;;;6.10;73.50;;;;;;6212396;28;20471;-64
2022/02/03 20:07:57;;;;;;;10.53;8.00;;;6.10;73.80;;;;;;6260884;28;20434;-64
2022/02/03 20:11:00;;;;;;;14.93;9.73;;;6.10;74.20;;;;;;6270887;28;20465;-64
2022/02/03 20:14:10;;;;;;;14.70;9.70;;;6.00;74.30;;;;;;6244899;28;20479;-65
2022/02/03 20:17:18;;;;;;;14.23;10.50;;;6.00;74.70;;;;;;6246748;28;20474;-64
2022/02/03 20:20:22;;;;;;;12.20;8.70;;;5.90;75.00;;;;;;6251249;28;20486;-64
2022/02/03 20:23:25;;;;;;;15.00;8.63;;;5.90;75.40;;;;;;6264172;28;20531;-66
2022/02/03 20:26:28;;;;;;;17.47;10.60;;;5.80;75.60;;;;;;6245156;28;20482;-65
2022/02/03 20:29:31;;;;;;;15.80;9.20;;;5.80;76.70;;;;;;6244627;28;20532;-64
2022/02/03 20:32:36;;;;;;;10.47;8.97;;;5.80;76.50;;;;;;6244673;28;20482;-64
2022/02/03 20:35:40;;;;;;;14.40;8.93;;;5.70;76.70;;;;;;6244025;28;20490;-65
2022/02/03 20:38:43;;;;;;;15.57;9.43;;;5.60;77.10;;;;;;6244477;28;21002;-65
2022/02/03 20:41:47;;;;;;;12.83;9.50;;;5.50;77.70;;;;;;6244334;28;20990;-67
2022/02/03 20:44:51;;;;;;;9.30;8.30;;;5.50;78.90;;;;;;6244069;28;20577;-66
2022/02/03 20:47:55;;;;;;;14.20;9.80;;;5.50;80.60;;;;;;6244539;28;20478;-66
2022/02/03 20:50:59;;;;;;;13.43;8.93;;;5.40;80.50;;;;;;6244755;28;20532;-66
2022/02/03 20:54:02;;;;;;;14.80;9.97;;;5.40;81.00;;;;;;6245096;28;20877;-66
2022/02/03 20:57:06;;;;;;;12.87;8.93;;;5.40;81.10;;;;;;6251217;28;20478;-66
2022/02/03 21:00:21;;;;;;;13.70;9.27;;;5.40;81.40;;;;;;6246466;28;20474;-66
2022/02/03 21:03:31;;;;;;;9.07;7.83;;;5.30;81.60;;;;;;6247372;28;20471;-66
2022/02/03 21:06:34;;;;;;;14.37;8.87;;;5.30;81.80;;;;;;6248942;28;20476;-67
2022/02/03 21:09:37;;;;;;;12.23;8.53;;;5.20;81.10;;;;;;6251954;28;20954;-65
2022/02/03 21:12:41;;;;;;;13.43;10.03;;;5.20;81.20;;;;;;6230713;28;20486;-65
2022/02/03 21:15:44;;;;;;;11.30;10.03;;;5.20;81.20;;;;;;6234633;28;20483;-65
2022/02/03 21:18:48;;;;;;;15.90;12.23;;;5.20;81.60;;;;;;6229665;28;20986;-66
2022/02/03 21:21:51;;;;;;;15.90;12.03;;;5.10;81.70;;;;;;6228141;28;20476;-67
2022/02/03 21:25:01;;;;;;;20.87;11.47;;;5.10;82.00;;;;;;6229199;28;20475;-66
2022/02/03 21:28:10;;;;;;;17.27;10.97;;;5.10;82.00;;;;;;6229701;28;20480;-67
2022/02/03 21:31:13;;;;;;;15.60;9.60;;;5.10;82.40;;;;;;6226246;28;20476;-66
2022/02/03 21:34:21;;;;;;;8.37;7.40;;;5.10;82.40;;;;;;6226886;28;20487;-64
2022/02/03 21:37:24;;;;;;;11.43;7.70;;;5.00;82.50;;;;;;6227144;28;20480;-67
2022/02/03 21:40:28;;;;;;;12.30;8.63;;;5.00;82.60;;;;;;6228647;28;20486;-66
2022/02/03 21:43:32;;;;;;;10.70;8.33;;;5.00;82.70;;;;;;6227121;28;20476;-64
2022/02/03 21:46:35;;;;;;;12.00;8.87;;;4.90;82.90;;;;;;6227602;28;20484;-65
2022/02/03 21:49:40;;;;;;;13.17;9.40;;;4.90;82.80;;;;;;6227434;28;20863;-67
2022/02/03 21:52:47;;;;;;;9.37;8.30;;;4.90;82.80;;;;;;6227021;28;20476;-66
2022/02/03 21:55:52;;;;;;;13.03;8.00;;;4.90;82.90;;;;;;6225945;28;20463;-68
2022/02/03 21:58:56;;;;;;;9.20;8.00;;;4.90;83.40;;;;;;6226376;28;20484;-66
2022/02/03 22:01:59;;;;;;;7.90;7.20;;;4.90;83.30;;;;;;6224793;28;20484;-67
2022/02/03 22:05:04;;;;;;;10.10;7.00;;;4.80;83.20;;;;;;6230327;28;20487;-66
2022/02/03 22:08:07;;;;;;;9.33;7.90;;;4.80;83.50;;;;;;6227950;28;20455;-66
2022/02/03 22:11:10;;;;;;;10.27;8.90;;;4.80;84.60;;;;;;6226651;28;20475;-67
2022/02/03 22:14:13;;;;;;;11.40;8.53;;;4.80;83.80;;;;;;6224123;28;20975;-66
2022/02/03 22:17:16;;;;;;;12.30;9.30;;;4.80;83.90;;;;;;6219979;28;20870;-64
2022/02/03 22:20:27;;;;;;;11.20;8.33;;;4.80;83.90;;;;;;6224568;28;20553;-66
2022/02/03 22:23:44;;;;;;;10.73;8.50;;;4.80;84.20;;;;;;6224811;28;20559;-66
2022/02/03 22:27:06;;;;;;;11.57;8.90;;;4.70;84.30;;;;;;6229181;28;20472;-66
2022/02/03 22:43:52;;;;;;;13.13;8.17;;;4.50;86.40;;;;;;6224708;28;20468;-65
2022/02/03 22:47:17;;;;;;;10.07;8.90;;;4.50;86.70;;;;;;6249501;28;20650;-67
2022/02/03 22:50:20;;;;;;;8.60;6.80;;;4.50;86.60;;;;;;6248662;28;20479;-66
2022/02/03 22:53:25;;;;;;;10.47;7.77;;;4.50;86.60;;;;;;6249088;28;20475;-66
2022/02/03 22:56:28;;;;;;;10.70;6.60;;;4.60;86.80;;;;;;6249381;28;20463;-66
2022/02/03 23:00:12;;;;;;;7.57;6.77;;;4.60;86.90;;;;;;6249394;28;20467;-66
2022/02/03 23:03:15;;;;;;;14.20;7.90;;;4.70;86.80;;;;;;6237547;28;20479;-66
2022/02/03 23:06:19;;;;;;;8.37;7.50;;;4.70;86.50;;;;;;6225016;28;20468;-66
2022/02/03 23:09:39;;;;;;;6.80;6.00;;;4.60;86.70;;;;;;6237205;28;20814;-66
2022/02/03 23:12:56;;;;;;;9.70;6.63;;;4.70;86.60;;;;;;6249248;28;20803;-66
2022/02/03 23:16:04;;;;;;;7.43;6.73;;;4.60;86.70;;;;;;6249155;28;20850;-66
2022/02/03 23:19:18;;;;;;;12.73;8.17;;;4.70;86.80;;;;;;6229909;28;20472;-66
2022/02/03 23:22:21;;;;;;;7.90;6.20;;;4.60;86.70;;;;;;6224344;28;20772;-67
2022/02/03 23:25:25;;;;;;;9.13;7.37;;;4.60;86.80;;;;;;6224569;28;20482;-66
2022/02/03 23:28:31;;;;;;;7.50;6.80;;;4.50;86.80;;;;;;6224769;28;20990;-68
2022/02/03 23:31:40;;;;;;;7.70;7.10;;;4.60;87.10;;;;;;6232943;28;20510;-68
2022/02/03 23:34:49;;;;;;;8.43;6.00;;;4.50;87.20;;;;;;6238435;28;20475;-65
2022/02/03 23:37:56;;;;;;;7.60;5.93;;;4.50;87.60;;;;;;6231318;28;20460;-65
2022/02/03 23:44:29;;;;;;;12.40;7.73;;;4.50;87.90;;;;;;6229346;28;20463;-66
2022/02/03 23:48:33;;;;;;;7.40;5.83;;;4.50;87.80;;;;;;6236272;28;20472;-66
